Terminal Aerodrome Forecast
Issued by NWS Tulsa, OK

Home | Current Version | Previous Version | Text Only | Print | Product List | Glossary On
Versions: 1 2 3 4 5 6 7 8 9 10 11 12 13
000
FTUS44 KTSA 251912 AAA
TAFTUL
TAF AMD
KTUL 251912Z 2519/2618 08010KT P6SM SCT025 BKN250
     FM260000 09005KT P6SM BKN250
     FM260600 VRB03KT P6SM VCTS BKN050CB BKN100
     FM261300 VRB03KT P6SM BKN050=

USA.gov is the U.S. government's official web portal to all federal, state and local government web resources and services.